sensor_id;sensor_type;location;lat;lon;timestamp;pressure;altitude;pressure_sealevel;temperature;humidity
37904;BME280;23738;50.422;18.758;2024-02-28T00:02:03;98441.86;;;10.14;86.44
37904;BME280;23738;50.422;18.758;2024-02-28T00:04:33;98444.27;;;10.12;86.49
37904;BME280;23738;50.422;18.758;2024-02-28T00:07:04;98446.11;;;10.09;86.51
37904;BME280;23738;50.422;18.758;2024-02-28T00:09:34;98444.60;;;10.05;86.45
37904;BME280;23738;50.422;18.758;2024-02-28T00:12:04;98443.79;;;10.04;86.26
37904;BME280;23738;50.422;18.758;2024-02-28T00:14:33;98439.71;;;9.99;86.68
37904;BME280;23738;50.422;18.758;2024-02-28T00:17:03;98443.80;;;10.00;86.55
37904;BME280;23738;50.422;18.758;2024-02-28T00:19:33;98444.85;;;9.96;86.62
37904;BME280;23738;50.422;18.758;2024-02-28T00:22:02;98446.02;;;9.93;86.52
37904;BME280;23738;50.422;18.758;2024-02-28T00:24:32;98442.60;;;9.89;86.49
37904;BME280;23738;50.422;18.758;2024-02-28T00:27:02;98447.86;;;9.87;86.58
37904;BME280;23738;50.422;18.758;2024-02-28T00:29:32;98446.15;;;9.85;86.56
37904;BME280;23738;50.422;18.758;2024-02-28T00:32:01;98444.31;;;9.84;86.59
37904;BME280;23738;50.422;18.758;2024-02-28T00:34:31;98445.96;;;9.82;86.63
37904;BME280;23738;50.422;18.758;2024-02-28T00:37:01;98446.29;;;9.82;86.83
37904;BME280;23738;50.422;18.758;2024-02-28T00:39:30;98443.05;;;9.82;86.85
37904;BME280;23738;50.422;18.758;2024-02-28T00:42:00;98438.77;;;9.78;86.95
37904;BME280;23738;50.422;18.758;2024-02-28T00:44:30;98437.09;;;9.76;87.08
37904;BME280;23738;50.422;18.758;2024-02-28T00:47:00;98440.35;;;9.78;87.25
37904;BME280;23738;50.422;18.758;2024-02-28T00:49:29;98443.36;;;9.82;87.41
37904;BME280;23738;50.422;18.758;2024-02-28T00:51:59;98440.80;;;9.83;87.60
37904;BME280;23738;50.422;18.758;2024-02-28T00:54:29;98435.77;;;9.82;87.62
37904;BME280;23738;50.422;18.758;2024-02-28T00:56:59;98439.35;;;9.81;87.52
37904;BME280;23738;50.422;18.758;2024-02-28T00:59:29;98435.94;;;9.78;87.57
37904;BME280;23738;50.422;18.758;2024-02-28T01:01:58;98434.75;;;9.77;87.70
37904;BME280;23738;50.422;18.758;2024-02-28T01:04:28;98430.39;;;9.74;87.55
37904;BME280;23738;50.422;18.758;2024-02-28T01:06:58;98426.05;;;9.73;87.53
37904;BME280;23738;50.422;18.758;2024-02-28T01:09:27;98424.59;;;9.72;87.76
37904;BME280;23738;50.422;18.758;2024-02-28T01:11:57;98422.92;;;9.72;87.63
37904;BME280;23738;50.422;18.758;2024-02-28T01:14:27;98421.98;;;9.69;87.51
37904;BME280;23738;50.422;18.758;2024-02-28T01:16:56;98424.84;;;9.66;87.70
37904;BME280;23738;50.422;18.758;2024-02-28T01:19:26;98424.82;;;9.62;87.65
37904;BME280;23738;50.422;18.758;2024-02-28T01:21:55;98420.02;;;9.59;87.65
37904;BME280;23738;50.422;18.758;2024-02-28T01:24:25;98418.20;;;9.54;87.57
37904;BME280;23738;50.422;18.758;2024-02-28T01:26:55;98424.35;;;9.56;87.66
37904;BME280;23738;50.422;18.758;2024-02-28T01:29:24;98423.23;;;9.54;87.60
37904;BME280;23738;50.422;18.758;2024-02-28T01:31:54;98423.13;;;9.51;87.80
37904;BME280;23738;50.422;18.758;2024-02-28T01:34:23;98420.73;;;9.46;87.65
37904;BME280;23738;50.422;18.758;2024-02-28T01:36:53;98421.80;;;9.43;87.66
37904;BME280;23738;50.422;18.758;2024-02-28T01:39:23;98421.91;;;9.38;87.53
37904;BME280;23738;50.422;18.758;2024-02-28T01:41:55;98417.34;;;9.37;87.50
37904;BME280;23738;50.422;18.758;2024-02-28T01:44:25;98416.92;;;9.36;87.55
37904;BME280;23738;50.422;18.758;2024-02-28T01:46:55;98415.22;;;9.34;87.70
37904;BME280;23738;50.422;18.758;2024-02-28T01:49:25;98416.39;;;9.32;87.81
37904;BME280;23738;50.422;18.758;2024-02-28T01:51:55;98409.59;;;9.29;87.51
37904;BME280;23738;50.422;18.758;2024-02-28T01:54:26;98410.75;;;9.26;87.65
37904;BME280;23738;50.422;18.758;2024-02-28T01:56:58;98405.38;;;9.24;87.70
37904;BME280;23738;50.422;18.758;2024-02-28T01:59:29;98407.91;;;9.25;87.93
37904;BME280;23738;50.422;18.758;2024-02-28T02:01:59;98409.44;;;9.23;87.66
37904;BME280;23738;50.422;18.758;2024-02-28T02:04:29;98407.65;;;9.22;87.75
37904;BME280;23738;50.422;18.758;2024-02-28T02:06:59;98406.89;;;9.18;87.78
37904;BME280;23738;50.422;18.758;2024-02-28T02:09:29;98405.70;;;9.15;87.65
37904;BME280;23738;50.422;18.758;2024-02-28T02:11:58;98403.48;;;9.12;87.74
37904;BME280;23738;50.422;18.758;2024-02-28T02:14:28;98402.21;;;9.09;87.71
37904;BME280;23738;50.422;18.758;2024-02-28T02:16:57;98401.69;;;9.10;87.87
37904;BME280;23738;50.422;18.758;2024-02-28T02:19:26;98400.24;;;9.12;87.92
37904;BME280;23738;50.422;18.758;2024-02-28T02:21:58;98397.45;;;9.13;87.86
37904;BME280;23738;50.422;18.758;2024-02-28T02:24:29;98397.98;;;9.14;88.07
37904;BME280;23738;50.422;18.758;2024-02-28T02:27:00;98394.64;;;9.12;88.04
37904;BME280;23738;50.422;18.758;2024-02-28T02:29:30;98396.94;;;9.09;87.98
37904;BME280;23738;50.422;18.758;2024-02-28T02:31:59;98398.71;;;9.06;88.02
37904;BME280;23738;50.422;18.758;2024-02-28T02:34:28;98398.98;;;9.06;88.07
37904;BME280;23738;50.422;18.758;2024-02-28T02:36:58;98395.48;;;9.07;88.06
37904;BME280;23738;50.422;18.758;2024-02-28T02:39:27;98396.02;;;9.08;88.13
37904;BME280;23738;50.422;18.758;2024-02-28T02:41:56;98394.02;;;9.07;88.23
37904;BME280;23738;50.422;18.758;2024-02-28T02:44:26;98397.55;;;9.05;88.13
37904;BME280;23738;50.422;18.758;2024-02-28T02:46:55;98396.33;;;9.02;88.32
37904;BME280;23738;50.422;18.758;2024-02-28T02:49:25;98395.60;;;9.01;88.42
37904;BME280;23738;50.422;18.758;2024-02-28T02:51:54;98398.40;;;9.01;88.45
37904;BME280;23738;50.422;18.758;2024-02-28T02:54:24;98399.52;;;9.03;88.43
37904;BME280;23738;50.422;18.758;2024-02-28T02:56:53;98399.19;;;9.06;88.60
37904;BME280;23738;50.422;18.758;2024-02-28T02:59:23;98400.99;;;9.08;88.63
37904;BME280;23738;50.422;18.758;2024-02-28T03:01:52;98402.09;;;9.10;88.94
37904;BME280;23738;50.422;18.758;2024-02-28T03:04:22;98403.02;;;9.11;88.77
37904;BME280;23738;50.422;18.758;2024-02-28T03:06:52;98404.08;;;9.11;88.71
37904;BME280;23738;50.422;18.758;2024-02-28T03:09:21;98407.77;;;9.11;88.68
37904;BME280;23738;50.422;18.758;2024-02-28T03:11:53;98404.88;;;9.13;88.74
37904;BME280;23738;50.422;18.758;2024-02-28T03:14:23;98405.83;;;9.15;88.86
37904;BME280;23738;50.422;18.758;2024-02-28T03:16:53;98405.98;;;9.15;88.67
37904;BME280;23738;50.422;18.758;2024-02-28T03:19:23;98405.85;;;9.14;88.84
37904;BME280;23738;50.422;18.758;2024-02-28T03:21:53;98407.91;;;9.13;88.76
37904;BME280;23738;50.422;18.758;2024-02-28T03:24:23;98405.79;;;9.10;88.70
37904;BME280;23738;50.422;18.758;2024-02-28T03:26:52;98407.96;;;9.10;88.86
37904;BME280;23738;50.422;18.758;2024-02-28T03:29:22;98412.31;;;9.11;88.88
37904;BME280;23738;50.422;18.758;2024-02-28T03:31:51;98414.63;;;9.12;88.80
37904;BME280;23738;50.422;18.758;2024-02-28T03:34:21;98418.21;;;9.13;88.98
37904;BME280;23738;50.422;18.758;2024-02-28T03:36:51;98417.98;;;9.14;88.98
37904;BME280;23738;50.422;18.758;2024-02-28T03:39:20;98420.65;;;9.13;89.11
37904;BME280;23738;50.422;18.758;2024-02-28T03:41:50;98420.66;;;9.12;88.99
37904;BME280;23738;50.422;18.758;2024-02-28T03:44:20;98420.59;;;9.11;89.05
37904;BME280;23738;50.422;18.758;2024-02-28T03:46:49;98422.48;;;9.11;89.00
37904;BME280;23738;50.422;18.758;2024-02-28T03:49:19;98422.89;;;9.14;89.15
37904;BME280;23738;50.422;18.758;2024-02-28T03:51:49;98421.96;;;9.16;89.40
37904;BME280;23738;50.422;18.758;2024-02-28T03:54:19;98423.64;;;9.17;89.44
37904;BME280;23738;50.422;18.758;2024-02-28T03:56:48;98423.44;;;9.19;89.59
37904;BME280;23738;50.422;18.758;2024-02-28T03:59:18;98427.40;;;9.18;89.61
37904;BME280;23738;50.422;18.758;2024-02-28T04:01:47;98427.29;;;9.18;89.40
37904;BME280;23738;50.422;18.758;2024-02-28T04:04:17;98430.61;;;9.18;89.44
37904;BME280;23738;50.422;18.758;2024-02-28T04:06:47;98432.30;;;9.18;89.83
37904;BME280;23738;50.422;18.758;2024-02-28T04:09:16;98435.04;;;9.18;89.85
37904;BME280;23738;50.422;18.758;2024-02-28T04:11:46;98436.52;;;9.16;90.00
37904;BME280;23738;50.422;18.758;2024-02-28T04:14:15;98438.83;;;9.16;90.14
37904;BME280;23738;50.422;18.758;2024-02-28T04:16:45;98437.78;;;9.17;90.15
37904;BME280;23738;50.422;18.758;2024-02-28T04:19:15;98440.77;;;9.21;90.27
37904;BME280;23738;50.422;18.758;2024-02-28T04:21:45;98442.17;;;9.26;90.55
37904;BME280;23738;50.422;18.758;2024-02-28T04:24:14;98441.20;;;9.31;90.61
37904;BME280;23738;50.422;18.758;2024-02-28T04:26:44;98443.94;;;9.33;90.50
37904;BME280;23738;50.422;18.758;2024-02-28T04:29:14;98443.75;;;9.31;90.35
37904;BME280;23738;50.422;18.758;2024-02-28T04:31:44;98447.60;;;9.30;90.54
37904;BME280;23738;50.422;18.758;2024-02-28T04:34:14;98452.52;;;9.28;90.40
37904;BME280;23738;50.422;18.758;2024-02-28T04:36:43;98453.61;;;9.28;90.38
37904;BME280;23738;50.422;18.758;2024-02-28T04:39:13;98448.69;;;9.30;90.53
37904;BME280;23738;50.422;18.758;2024-02-28T04:41:42;98453.90;;;9.32;90.60
37904;BME280;23738;50.422;18.758;2024-02-28T04:44:12;98453.88;;;9.30;90.57
37904;BME280;23738;50.422;18.758;2024-02-28T04:46:41;98456.95;;;9.27;90.56
37904;BME280;23738;50.422;18.758;2024-02-28T04:49:11;98458.61;;;9.22;90.67
37904;BME280;23738;50.422;18.758;2024-02-28T04:51:41;98458.51;;;9.17;90.71
37904;BME280;23738;50.422;18.758;2024-02-28T04:54:11;98461.31;;;9.13;90.81
37904;BME280;23738;50.422;18.758;2024-02-28T04:56:42;98463.34;;;9.08;90.84
37904;BME280;23738;50.422;18.758;2024-02-28T04:59:12;98466.06;;;9.03;90.97
37904;BME280;23738;50.422;18.758;2024-02-28T05:01:42;98467.16;;;8.99;91.02
37904;BME280;23738;50.422;18.758;2024-02-28T05:04:14;98474.79;;;8.94;91.42
37904;BME280;23738;50.422;18.758;2024-02-28T05:06:43;98476.91;;;8.87;91.57
37904;BME280;23738;50.422;18.758;2024-02-28T05:09:13;98476.81;;;8.80;91.51
37904;BME280;23738;50.422;18.758;2024-02-28T05:11:43;98479.48;;;8.76;91.51
37904;BME280;23738;50.422;18.758;2024-02-28T05:14:12;98484.54;;;8.75;91.72
37904;BME280;23738;50.422;18.758;2024-02-28T05:16:42;98488.86;;;8.78;92.05
37904;BME280;23738;50.422;18.758;2024-02-28T05:19:12;98485.02;;;8.82;92.32
37904;BME280;23738;50.422;18.758;2024-02-28T05:21:45;98491.14;;;8.88;92.38
37904;BME280;23738;50.422;18.758;2024-02-28T05:24:16;98492.63;;;8.90;92.43
37904;BME280;23738;50.422;18.758;2024-02-28T05:26:46;98493.71;;;8.93;92.68
37904;BME280;23738;50.422;18.758;2024-02-28T05:29:16;98500.10;;;8.95;92.57
37904;BME280;23738;50.422;18.758;2024-02-28T05:31:46;98500.64;;;8.98;92.52
37904;BME280;23738;50.422;18.758;2024-02-28T05:34:15;98505.94;;;9.02;92.72
37904;BME280;23738;50.422;18.758;2024-02-28T05:36:45;98512.38;;;9.02;92.53
37904;BME280;23738;50.422;18.758;2024-02-28T05:39:14;98512.64;;;8.99;92.54
37904;BME280;23738;50.422;18.758;2024-02-28T05:41:44;98514.08;;;8.96;92.48
37904;BME280;23738;50.422;18.758;2024-02-28T05:44:14;98513.98;;;8.91;92.63
37904;BME280;23738;50.422;18.758;2024-02-28T05:46:44;98514.72;;;8.91;92.71
37904;BME280;23738;50.422;18.758;2024-02-28T05:49:13;98513.41;;;8.93;92.83
37904;BME280;23738;50.422;18.758;2024-02-28T05:51:43;98516.15;;;8.95;92.69
37904;BME280;23738;50.422;18.758;2024-02-28T05:54:14;98514.75;;;8.93;92.65
37904;BME280;23738;50.422;18.758;2024-02-28T05:56:44;98518.72;;;8.94;92.89
37904;BME280;23738;50.422;18.758;2024-02-28T05:59:14;98518.92;;;8.94;92.65
37904;BME280;23738;50.422;18.758;2024-02-28T06:01:45;98521.67;;;8.94;92.88
37904;BME280;23738;50.422;18.758;2024-02-28T06:04:14;98522.88;;;8.94;92.75
37904;BME280;23738;50.422;18.758;2024-02-28T06:06:44;98523.22;;;8.96;92.79
37904;BME280;23738;50.422;18.758;2024-02-28T06:09:14;98525.60;;;8.98;92.83
37904;BME280;23738;50.422;18.758;2024-02-28T06:11:43;98528.77;;;8.98;92.77
37904;BME280;23738;50.422;18.758;2024-02-28T06:14:13;98531.36;;;8.98;92.89
37904;BME280;23738;50.422;18.758;2024-02-28T06:16:43;98536.54;;;8.97;92.88
37904;BME280;23738;50.422;18.758;2024-02-28T06:19:15;98537.73;;;8.96;92.73
37904;BME280;23738;50.422;18.758;2024-02-28T06:21:45;98540.76;;;8.97;92.88
37904;BME280;23738;50.422;18.758;2024-02-28T06:24:14;98540.50;;;8.99;92.88
37904;BME280;23738;50.422;18.758;2024-02-28T06:26:44;98540.52;;;9.01;92.85
37904;BME280;23738;50.422;18.758;2024-02-28T06:29:14;98542.75;;;9.01;92.83
37904;BME280;23738;50.422;18.758;2024-02-28T06:31:44;98542.90;;;9.02;93.05
37904;BME280;23738;50.422;18.758;2024-02-28T06:34:14;98542.42;;;9.02;93.11
37904;BME280;23738;50.422;18.758;2024-02-28T06:36:44;98545.91;;;9.04;93.06
37904;BME280;23738;50.422;18.758;2024-02-28T06:39:13;98543.41;;;9.04;92.82
37904;BME280;23738;50.422;18.758;2024-02-28T06:41:44;98540.27;;;9.02;92.88
37904;BME280;23738;50.422;18.758;2024-02-28T06:44:14;98544.39;;;8.96;92.66
37904;BME280;23738;50.422;18.758;2024-02-28T06:46:44;98549.73;;;8.92;92.74
37904;BME280;23738;50.422;18.758;2024-02-28T06:49:14;98547.98;;;8.84;92.76
37904;BME280;23738;50.422;18.758;2024-02-28T06:51:44;98548.14;;;8.77;92.83
37904;BME280;23738;50.422;18.758;2024-02-28T06:54:14;98552.08;;;8.74;92.83
37904;BME280;23738;50.422;18.758;2024-02-28T06:56:44;98553.89;;;8.73;92.89
37904;BME280;23738;50.422;18.758;2024-02-28T06:59:14;98564.24;;;8.75;93.16
37904;BME280;23738;50.422;18.758;2024-02-28T07:01:43;98571.86;;;8.74;92.97
37904;BME280;23738;50.422;18.758;2024-02-28T07:04:13;98573.77;;;8.72;93.05
37904;BME280;23738;50.422;18.758;2024-02-28T07:06:43;98573.91;;;8.69;93.08
37904;BME280;23738;50.422;18.758;2024-02-28T07:09:13;98573.98;;;8.67;93.14
37904;BME280;23738;50.422;18.758;2024-02-28T07:11:43;98576.61;;;8.67;93.24
37904;BME280;23738;50.422;18.758;2024-02-28T07:14:12;98573.64;;;8.70;93.41
37904;BME280;23738;50.422;18.758;2024-02-28T07:16:42;98572.04;;;8.76;93.47
37904;BME280;23738;50.422;18.758;2024-02-28T07:19:12;98572.54;;;8.79;93.57
37904;BME280;23738;50.422;18.758;2024-02-28T07:21:42;98571.82;;;8.82;93.71
37904;BME280;23738;50.422;18.758;2024-02-28T07:24:11;98573.55;;;8.85;93.86
37904;BME280;23738;50.422;18.758;2024-02-28T07:26:42;98579.67;;;8.87;93.71
37904;BME280;23738;50.422;18.758;2024-02-28T07:29:11;98576.30;;;8.89;93.82
37904;BME280;23738;50.422;18.758;2024-02-28T07:31:41;98577.52;;;8.94;93.90
37904;BME280;23738;50.422;18.758;2024-02-28T07:34:11;98578.62;;;8.98;93.95
37904;BME280;23738;50.422;18.758;2024-02-28T07:36:40;98580.33;;;9.07;94.33
37904;BME280;23738;50.422;18.758;2024-02-28T07:39:10;98578.20;;;9.17;94.56
37904;BME280;23738;50.422;18.758;2024-02-28T07:41:41;98580.49;;;9.26;94.56
37904;BME280;23738;50.422;18.758;2024-02-28T07:44:11;98582.58;;;9.28;94.32
37904;BME280;23738;50.422;18.758;2024-02-28T07:46:42;98590.11;;;9.26;93.98
37904;BME280;23738;50.422;18.758;2024-02-28T07:49:12;98592.83;;;9.27;94.24
37904;BME280;23738;50.422;18.758;2024-02-28T07:51:42;98597.10;;;9.32;94.42
37904;BME280;23738;50.422;18.758;2024-02-28T07:54:11;98599.79;;;9.38;94.53
37904;BME280;23738;50.422;18.758;2024-02-28T07:56:41;98599.08;;;9.40;94.42
37904;BME280;23738;50.422;18.758;2024-02-28T07:59:11;98600.75;;;9.43;94.60
37904;BME280;23738;50.422;18.758;2024-02-28T08:01:40;98602.73;;;9.43;94.48
37904;BME280;23738;50.422;18.758;2024-02-28T08:04:10;98603.66;;;9.40;94.17
37904;BME280;23738;50.422;18.758;2024-02-28T08:06:41;98603.67;;;9.42;94.47
37904;BME280;23738;50.422;18.758;2024-02-28T08:09:10;98596.11;;;9.48;94.77
37904;BME280;23738;50.422;18.758;2024-02-28T08:11:40;98594.98;;;9.55;95.07
37904;BME280;23738;50.422;18.758;2024-02-28T08:14:10;98588.98;;;9.61;95.12
37904;BME280;23738;50.422;18.758;2024-02-28T08:16:39;98589.51;;;9.67;95.10
37904;BME280;23738;50.422;18.758;2024-02-28T08:19:09;98588.31;;;9.69;95.13
37904;BME280;23738;50.422;18.758;2024-02-28T08:21:39;98589.63;;;9.77;95.07
37904;BME280;23738;50.422;18.758;2024-02-28T08:24:09;98590.73;;;9.84;95.19
37904;BME280;23738;50.422;18.758;2024-02-28T08:26:38;98593.28;;;9.89;95.29
37904;BME280;23738;50.422;18.758;2024-02-28T08:29:09;98595.23;;;9.92;95.43
37904;BME280;23738;50.422;18.758;2024-02-28T08:31:43;98597.23;;;9.96;95.44
37904;BME280;23738;50.422;18.758;2024-02-28T08:34:13;98595.21;;;10.01;95.20
37904;BME280;23738;50.422;18.758;2024-02-28T08:36:42;98600.05;;;10.09;95.52
37904;BME280;23738;50.422;18.758;2024-02-28T08:39:12;98608.40;;;10.13;95.30
37904;BME280;23738;50.422;18.758;2024-02-28T08:41:41;98608.05;;;10.16;95.54
37904;BME280;23738;50.422;18.758;2024-02-28T08:44:11;98606.09;;;10.14;95.13
37904;BME280;23738;50.422;18.758;2024-02-28T08:46:40;98608.55;;;10.06;94.92
37904;BME280;23738;50.422;18.758;2024-02-28T08:49:10;98601.45;;;9.98;94.92
37904;BME280;23738;50.422;18.758;2024-02-28T08:51:40;98601.45;;;9.96;94.87
37904;BME280;23738;50.422;18.758;2024-02-28T08:54:09;98600.23;;;9.97;95.05
37904;BME280;23738;50.422;18.758;2024-02-28T08:56:39;98598.48;;;9.98;95.11
37904;BME280;23738;50.422;18.758;2024-02-28T08:59:08;98603.55;;;9.95;94.95
37904;BME280;23738;50.422;18.758;2024-02-28T09:01:38;98603.38;;;9.90;95.13
37904;BME280;23738;50.422;18.758;2024-02-28T09:04:10;98610.84;;;9.90;95.24
37904;BME280;23738;50.422;18.758;2024-02-28T09:06:39;98603.65;;;9.92;95.38
37904;BME280;23738;50.422;18.758;2024-02-28T09:09:09;98604.91;;;9.98;95.58
37904;BME280;23738;50.422;18.758;2024-02-28T09:11:38;98611.81;;;10.00;95.49
37904;BME280;23738;50.422;18.758;2024-02-28T09:14:08;98617.61;;;10.05;95.59
37904;BME280;23738;50.422;18.758;2024-02-28T09:16:38;98619.52;;;10.08;95.58
37904;BME280;23738;50.422;18.758;2024-02-28T09:19:08;98625.27;;;10.08;95.77
37904;BME280;23738;50.422;18.758;2024-02-28T09:21:38;98627.40;;;10.12;96.03
37904;BME280;23738;50.422;18.758;2024-02-28T09:24:08;98637.56;;;10.15;96.08
37904;BME280;23738;50.422;18.758;2024-02-28T09:26:39;98632.34;;;10.16;95.98
37904;BME280;23738;50.422;18.758;2024-02-28T09:29:09;98634.30;;;10.19;96.03
37904;BME280;23738;50.422;18.758;2024-02-28T09:31:39;98634.20;;;10.21;95.98
37904;BME280;23738;50.422;18.758;2024-02-28T09:34:08;98639.34;;;10.22;96.27
37904;BME280;23738;50.422;18.758;2024-02-28T09:36:42;98637.20;;;10.22;96.07
37904;BME280;23738;50.422;18.758;2024-02-28T09:39:13;98639.10;;;10.20;96.00
37904;BME280;23738;50.422;18.758;2024-02-28T09:41:46;98641.55;;;10.14;95.90
37904;BME280;23738;50.422;18.758;2024-02-28T09:44:17;98646.13;;;10.13;96.20
37904;BME280;23738;50.422;18.758;2024-02-28T09:46:47;98649.71;;;10.12;96.21
37904;BME280;23738;50.422;18.758;2024-02-28T09:49:19;98644.79;;;10.14;96.20
37904;BME280;23738;50.422;18.758;2024-02-28T09:51:50;98646.05;;;10.15;96.41
37904;BME280;23738;50.422;18.758;2024-02-28T09:54:20;98648.94;;;10.14;96.26
37904;BME280;23738;50.422;18.758;2024-02-28T09:56:50;98654.00;;;10.15;96.27
37904;BME280;23738;50.422;18.758;2024-02-28T09:59:21;98662.02;;;10.15;96.44
37904;BME280;23738;50.422;18.758;2024-02-28T10:01:55;98664.30;;;10.15;96.37
37904;BME280;23738;50.422;18.758;2024-02-28T10:04:27;98668.73;;;10.18;96.47
37904;BME280;23738;50.422;18.758;2024-02-28T10:06:57;98668.23;;;10.21;96.61
37904;BME280;23738;50.422;18.758;2024-02-28T10:09:26;98671.27;;;10.22;96.42
37904;BME280;23738;50.422;18.758;2024-02-28T10:11:56;98668.02;;;10.20;96.48
37904;BME280;23738;50.422;18.758;2024-02-28T10:14:25;98668.50;;;10.19;96.75
37904;BME280;23738;50.422;18.758;2024-02-28T10:16:56;98668.06;;;10.15;96.37
37904;BME280;23738;50.422;18.758;2024-02-28T10:19:26;98671.75;;;10.14;96.48
37904;BME280;23738;50.422;18.758;2024-02-28T10:21:56;98672.48;;;10.17;96.75
37904;BME280;23738;50.422;18.758;2024-02-28T10:24:27;98671.14;;;10.23;96.62
37904;BME280;23738;50.422;18.758;2024-02-28T10:26:57;98670.30;;;10.24;96.69
37904;BME280;23738;50.422;18.758;2024-02-28T10:29:30;98674.05;;;10.25;96.65
37904;BME280;23738;50.422;18.758;2024-02-28T10:32:01;98675.20;;;10.25;96.76
37904;BME280;23738;50.422;18.758;2024-02-28T10:34:34;98680.95;;;10.28;96.88
37904;BME280;23738;50.422;18.758;2024-02-28T10:37:05;98680.88;;;10.32;97.04
37904;BME280;23738;50.422;18.758;2024-02-28T10:39:35;98681.36;;;10.35;96.88
37904;BME280;23738;50.422;18.758;2024-02-28T10:42:07;98681.12;;;10.36;96.73
37904;BME280;23738;50.422;18.758;2024-02-28T10:44:39;98682.89;;;10.34;96.74
37904;BME280;23738;50.422;18.758;2024-02-28T10:47:12;98684.54;;;10.32;96.82
37904;BME280;23738;50.422;18.758;2024-02-28T10:49:45;98689.34;;;10.28;96.85
37904;BME280;23738;50.422;18.758;2024-02-28T10:52:16;98694.52;;;10.24;96.68
37904;BME280;23738;50.422;18.758;2024-02-28T10:54:53;98701.48;;;10.23;96.73
37904;BME280;23738;50.422;18.758;2024-02-28T10:57:25;98698.13;;;10.24;96.82
37904;BME280;23738;50.422;18.758;2024-02-28T10:59:56;98692.48;;;10.24;97.05
37904;BME280;23738;50.422;18.758;2024-02-28T11:02:27;98693.17;;;10.24;96.99
37904;BME280;23738;50.422;18.758;2024-02-28T11:04:58;98701.40;;;10.23;96.93
37904;BME280;23738;50.422;18.758;2024-02-28T11:07:32;98695.31;;;10.22;97.28
37904;BME280;23738;50.422;18.758;2024-02-28T11:10:12;98697.39;;;10.21;97.14
37904;BME280;23738;50.422;18.758;2024-02-28T11:12:41;98698.67;;;10.22;97.08
37904;BME280;23738;50.422;18.758;2024-02-28T11:15:17;98699.10;;;10.20;97.09
37904;BME280;23738;50.422;18.758;2024-02-28T11:17:47;98705.96;;;10.20;96.91
37904;BME280;23738;50.422;18.758;2024-02-28T11:20:18;98703.41;;;10.18;96.97
37904;BME280;23738;50.422;18.758;2024-02-28T11:22:58;98709.16;;;10.15;97.02
37904;BME280;23738;50.422;18.758;2024-02-28T11:25:29;98705.08;;;10.10;96.94
37904;BME280;23738;50.422;18.758;2024-02-28T11:27:59;98704.09;;;10.07;97.07
37904;BME280;23738;50.422;18.758;2024-02-28T11:30:28;98703.64;;;10.06;97.00
37904;BME280;23738;50.422;18.758;2024-02-28T11:32:59;98702.03;;;10.07;97.18
37904;BME280;23738;50.422;18.758;2024-02-28T11:35:34;98704.39;;;10.05;97.10
37904;BME280;23738;50.422;18.758;2024-02-28T11:38:07;98706.35;;;10.02;96.92
37904;BME280;23738;50.422;18.758;2024-02-28T11:40:50;98705.46;;;10.02;97.10
37904;BME280;23738;50.422;18.758;2024-02-28T11:43:21;98702.95;;;10.02;96.91
37904;BME280;23738;50.422;18.758;2024-02-28T11:45:54;98701.59;;;10.02;96.90
37904;BME280;23738;50.422;18.758;2024-02-28T11:48:28;98702.42;;;10.04;97.30
37904;BME280;23738;50.422;18.758;2024-02-28T11:50:58;98703.55;;;10.08;97.24
37904;BME280;23738;50.422;18.758;2024-02-28T11:53:34;98700.83;;;10.13;97.38
37904;BME280;23738;50.422;18.758;2024-02-28T11:56:07;98701.95;;;10.13;97.12
37904;BME280;23738;50.422;18.758;2024-02-28T11:58:39;98702.20;;;10.11;96.93
37904;BME280;23738;50.422;18.758;2024-02-28T12:01:19;98705.98;;;10.12;97.18
37904;BME280;23738;50.422;18.758;2024-02-28T12:03:49;98703.42;;;10.11;97.15
37904;BME280;23738;50.422;18.758;2024-02-28T12:06:20;98706.77;;;10.07;97.23
37904;BME280;23738;50.422;18.758;2024-02-28T12:08:50;98701.64;;;10.07;97.36
37904;BME280;23738;50.422;18.758;2024-02-28T12:11:28;98708.91;;;10.13;97.29
37904;BME280;23738;50.422;18.758;2024-02-28T12:14:00;98708.42;;;10.17;97.40
37904;BME280;23738;50.422;18.758;2024-02-28T12:16:34;98710.77;;;10.17;97.19
37904;BME280;23738;50.422;18.758;2024-02-28T12:19:09;98711.91;;;10.14;97.50
37904;BME280;23738;50.422;18.758;2024-02-28T12:21:42;98713.55;;;10.16;97.37
37904;BME280;23738;50.422;18.758;2024-02-28T12:24:16;98712.69;;;10.13;97.03
37904;BME280;23738;50.422;18.758;2024-02-28T12:26:49;98715.09;;;10.09;96.96
37904;BME280;23738;50.422;18.758;2024-02-28T12:29:24;98711.40;;;10.05;96.92
37904;BME280;23738;50.422;18.758;2024-02-28T12:31:55;98720.42;;;10.06;96.90
37904;BME280;23738;50.422;18.758;2024-02-28T12:34:28;98721.11;;;10.00;96.82
37904;BME280;23738;50.422;18.758;2024-02-28T12:36:59;98716.66;;;9.97;97.26
37904;BME280;23738;50.422;18.758;2024-02-28T12:39:41;98716.54;;;10.02;97.31
37904;BME280;23738;50.422;18.758;2024-02-28T12:42:12;98716.91;;;9.98;97.15
37904;BME280;23738;50.422;18.758;2024-02-28T12:45:07;98723.21;;;10.03;97.33
37904;BME280;23738;50.422;18.758;2024-02-28T12:47:41;98725.85;;;10.03;96.97
37904;BME280;23738;50.422;18.758;2024-02-28T12:50:13;98730.27;;;10.03;97.13
37904;BME280;23738;50.422;18.758;2024-02-28T12:52:45;98732.94;;;10.07;97.51
37904;BME280;23738;50.422;18.758;2024-02-28T12:55:19;98734.24;;;10.08;97.23
37904;BME280;23738;50.422;18.758;2024-02-28T12:57:50;98735.16;;;10.05;97.15
37904;BME280;23738;50.422;18.758;2024-02-28T13:00:21;98731.96;;;10.01;97.38
37904;BME280;23738;50.422;18.758;2024-02-28T13:02:51;98732.33;;;10.01;97.12
37904;BME280;23738;50.422;18.758;2024-02-28T13:05:23;98729.54;;;10.02;97.32
37904;BME280;23738;50.422;18.758;2024-02-28T13:07:54;98739.28;;;9.98;97.14
37904;BME280;23738;50.422;18.758;2024-02-28T13:10:25;98738.02;;;9.95;97.31
37904;BME280;23738;50.422;18.758;2024-02-28T13:12:55;98738.48;;;9.99;97.34
37904;BME280;23738;50.422;18.758;2024-02-28T13:15:27;98741.77;;;9.99;97.39